sensor_id;sensor_type;location;lat;lon;timestamp;P1;durP1;ratioP1;P2;durP2;ratioP2
15240;SDS011;7723;52.170;9.978;2023-05-07T00:01:43;32.88;;;17.88;;
15240;SDS011;7723;52.170;9.978;2023-05-07T00:04:10;31.48;;;17.05;;
15240;SDS011;7723;52.170;9.978;2023-05-07T00:06:39;27.25;;;17.05;;
15240;SDS011;7723;52.170;9.978;2023-05-07T00:09:06;31.27;;;18.42;;
15240;SDS011;7723;52.170;9.978;2023-05-07T00:11:33;34.00;;;19.70;;
15240;SDS011;7723;52.170;9.978;2023-05-07T00:14:01;29.38;;;17.38;;
15240;SDS011;7723;52.170;9.978;2023-05-07T00:16:28;28.23;;;16.98;;
15240;SDS011;7723;52.170;9.978;2023-05-07T00:18:55;39.10;;;17.15;;
15240;SDS011;7723;52.170;9.978;2023-05-07T00:21:22;34.20;;;18.60;;
15240;SDS011;7723;52.170;9.978;2023-05-07T00:23:53;32.10;;;17.67;;
15240;SDS011;7723;52.170;9.978;2023-05-07T00:26:20;32.88;;;19.23;;
15240;SDS011;7723;52.170;9.978;2023-05-07T00:28:47;30.10;;;17.05;;
15240;SDS011;7723;52.170;9.978;2023-05-07T00:31:14;31.80;;;17.65;;
15240;SDS011;7723;52.170;9.978;2023-05-07T00:33:41;31.88;;;18.17;;
15240;SDS011;7723;52.170;9.978;2023-05-07T00:36:08;30.35;;;17.20;;
15240;SDS011;7723;52.170;9.978;2023-05-07T00:38:35;26.95;;;16.80;;
15240;SDS011;7723;52.170;9.978;2023-05-07T00:41:04;30.02;;;16.40;;
15240;SDS011;7723;52.170;9.978;2023-05-07T00:43:32;32.95;;;16.98;;
15240;SDS011;7723;52.170;9.978;2023-05-07T00:45:59;30.20;;;16.05;;
15240;SDS011;7723;52.170;9.978;2023-05-07T00:48:27;27.25;;;15.73;;
15240;SDS011;7723;52.170;9.978;2023-05-07T00:50:54;33.33;;;18.77;;
15240;SDS011;7723;52.170;9.978;2023-05-07T00:53:21;32.65;;;17.25;;
15240;SDS011;7723;52.170;9.978;2023-05-07T00:55:48;30.73;;;17.70;;
15240;SDS011;7723;52.170;9.978;2023-05-07T00:58:17;32.42;;;17.20;;
15240;SDS011;7723;52.170;9.978;2023-05-07T01:00:44;30.55;;;16.58;;
15240;SDS011;7723;52.170;9.978;2023-05-07T01:03:12;28.98;;;16.17;;
15240;SDS011;7723;52.170;9.978;2023-05-07T01:05:39;28.60;;;15.50;;
15240;SDS011;7723;52.170;9.978;2023-05-07T01:08:07;27.50;;;15.02;;
15240;SDS011;7723;52.170;9.978;2023-05-07T01:10:35;29.90;;;16.88;;
15240;SDS011;7723;52.170;9.978;2023-05-07T01:13:02;31.67;;;17.35;;
15240;SDS011;7723;52.170;9.978;2023-05-07T01:15:31;33.03;;;17.35;;
15240;SDS011;7723;52.170;9.978;2023-05-07T01:17:58;31.60;;;15.90;;
15240;SDS011;7723;52.170;9.978;2023-05-07T01:20:26;30.42;;;15.95;;
15240;SDS011;7723;52.170;9.978;2023-05-07T01:22:56;26.33;;;16.05;;
15240;SDS011;7723;52.170;9.978;2023-05-07T01:25:23;30.23;;;15.02;;
15240;SDS011;7723;52.170;9.978;2023-05-07T01:27:51;34.50;;;17.05;;
15240;SDS011;7723;52.170;9.978;2023-05-07T01:30:18;30.60;;;15.57;;
15240;SDS011;7723;52.170;9.978;2023-05-07T01:32:49;24.05;;;14.23;;
15240;SDS011;7723;52.170;9.978;2023-05-07T01:35:20;28.00;;;14.48;;
15240;SDS011;7723;52.170;9.978;2023-05-07T01:37:49;23.75;;;12.98;;
15240;SDS011;7723;52.170;9.978;2023-05-07T01:40:17;23.50;;;13.32;;
15240;SDS011;7723;52.170;9.978;2023-05-07T01:42:45;24.73;;;12.95;;
15240;SDS011;7723;52.170;9.978;2023-05-07T01:45:13;25.10;;;13.85;;
15240;SDS011;7723;52.170;9.978;2023-05-07T01:47:40;22.17;;;11.68;;
15240;SDS011;7723;52.170;9.978;2023-05-07T01:50:09;23.35;;;12.63;;
15240;SDS011;7723;52.170;9.978;2023-05-07T01:52:36;21.65;;;12.07;;
15240;SDS011;7723;52.170;9.978;2023-05-07T01:55:04;21.45;;;11.57;;
15240;SDS011;7723;52.170;9.978;2023-05-07T01:57:34;20.08;;;11.55;;
15240;SDS011;7723;52.170;9.978;2023-05-07T02:00:01;19.55;;;10.90;;
15240;SDS011;7723;52.170;9.978;2023-05-07T02:02:31;22.38;;;11.88;;
15240;SDS011;7723;52.170;9.978;2023-05-07T02:04:59;19.73;;;10.60;;
15240;SDS011;7723;52.170;9.978;2023-05-07T02:07:26;17.83;;;10.45;;
15240;SDS011;7723;52.170;9.978;2023-05-07T02:09:54;18.48;;;11.00;;
15240;SDS011;7723;52.170;9.978;2023-05-07T02:12:21;17.58;;;10.63;;
15240;SDS011;7723;52.170;9.978;2023-05-07T02:14:50;18.77;;;10.57;;
15240;SDS011;7723;52.170;9.978;2023-05-07T02:17:17;17.17;;;10.15;;
15240;SDS011;7723;52.170;9.978;2023-05-07T02:19:44;17.45;;;10.48;;
15240;SDS011;7723;52.170;9.978;2023-05-07T02:22:11;16.60;;;10.48;;
15240;SDS011;7723;52.170;9.978;2023-05-07T02:24:38;15.77;;;10.10;;
15240;SDS011;7723;52.170;9.978;2023-05-07T02:27:05;15.63;;;10.40;;
15240;SDS011;7723;52.170;9.978;2023-05-07T02:29:32;15.70;;;9.75;;
15240;SDS011;7723;52.170;9.978;2023-05-07T02:32:00;17.67;;;10.52;;
15240;SDS011;7723;52.170;9.978;2023-05-07T02:34:28;15.88;;;10.40;;
15240;SDS011;7723;52.170;9.978;2023-05-07T02:36:55;16.95;;;9.15;;
15240;SDS011;7723;52.170;9.978;2023-05-07T02:39:22;17.80;;;10.90;;
15240;SDS011;7723;52.170;9.978;2023-05-07T02:41:49;16.38;;;10.15;;
15240;SDS011;7723;52.170;9.978;2023-05-07T02:44:16;15.40;;;10.07;;
15240;SDS011;7723;52.170;9.978;2023-05-07T02:46:43;15.95;;;10.02;;
15240;SDS011;7723;52.170;9.978;2023-05-07T02:49:11;15.20;;;9.82;;
15240;SDS011;7723;52.170;9.978;2023-05-07T02:51:38;15.88;;;10.02;;
15240;SDS011;7723;52.170;9.978;2023-05-07T02:54:06;20.08;;;11.05;;
15240;SDS011;7723;52.170;9.978;2023-05-07T02:56:33;17.58;;;10.25;;
15240;SDS011;7723;52.170;9.978;2023-05-07T02:59:00;16.48;;;9.13;;
15240;SDS011;7723;52.170;9.978;2023-05-07T03:01:27;15.02;;;9.55;;
15240;SDS011;7723;52.170;9.978;2023-05-07T03:03:54;16.92;;;11.90;;
15240;SDS011;7723;52.170;9.978;2023-05-07T03:06:23;16.15;;;10.50;;
15240;SDS011;7723;52.170;9.978;2023-05-07T03:08:50;15.82;;;9.30;;
15240;SDS011;7723;52.170;9.978;2023-05-07T03:11:17;16.90;;;11.18;;
15240;SDS011;7723;52.170;9.978;2023-05-07T03:13:44;19.67;;;11.50;;
15240;SDS011;7723;52.170;9.978;2023-05-07T03:16:11;18.05;;;10.98;;
15240;SDS011;7723;52.170;9.978;2023-05-07T03:18:38;14.95;;;9.48;;
15240;SDS011;7723;52.170;9.978;2023-05-07T03:21:06;18.50;;;10.35;;
15240;SDS011;7723;52.170;9.978;2023-05-07T03:23:34;16.52;;;10.07;;
15240;SDS011;7723;52.170;9.978;2023-05-07T03:26:01;18.27;;;9.82;;
15240;SDS011;7723;52.170;9.978;2023-05-07T03:28:28;16.67;;;10.13;;
15240;SDS011;7723;52.170;9.978;2023-05-07T03:30:56;15.05;;;9.68;;
15240;SDS011;7723;52.170;9.978;2023-05-07T03:33:23;18.33;;;9.77;;
15240;SDS011;7723;52.170;9.978;2023-05-07T03:35:50;16.52;;;9.50;;
15240;SDS011;7723;52.170;9.978;2023-05-07T03:38:17;17.70;;;9.30;;
15240;SDS011;7723;52.170;9.978;2023-05-07T03:40:45;16.50;;;9.73;;
15240;SDS011;7723;52.170;9.978;2023-05-07T03:43:13;15.88;;;9.38;;
15240;SDS011;7723;52.170;9.978;2023-05-07T03:45:40;17.75;;;9.30;;
15240;SDS011;7723;52.170;9.978;2023-05-07T03:48:07;13.50;;;8.38;;
15240;SDS011;7723;52.170;9.978;2023-05-07T03:50:34;14.68;;;8.80;;
15240;SDS011;7723;52.170;9.978;2023-05-07T03:53:01;18.58;;;9.43;;
15240;SDS011;7723;52.170;9.978;2023-05-07T03:55:28;15.57;;;8.95;;
15240;SDS011;7723;52.170;9.978;2023-05-07T03:57:57;15.23;;;9.13;;
15240;SDS011;7723;52.170;9.978;2023-05-07T04:00:24;13.27;;;8.13;;
15240;SDS011;7723;52.170;9.978;2023-05-07T04:02:51;17.17;;;9.68;;
15240;SDS011;7723;52.170;9.978;2023-05-07T04:05:18;13.95;;;8.75;;
15240;SDS011;7723;52.170;9.978;2023-05-07T04:07:45;15.23;;;9.30;;
15240;SDS011;7723;52.170;9.978;2023-05-07T04:10:12;15.85;;;10.07;;
15240;SDS011;7723;52.170;9.978;2023-05-07T04:12:40;16.75;;;9.23;;
15240;SDS011;7723;52.170;9.978;2023-05-07T04:15:09;13.85;;;9.15;;
15240;SDS011;7723;52.170;9.978;2023-05-07T04:17:36;14.95;;;8.80;;
15240;SDS011;7723;52.170;9.978;2023-05-07T04:20:04;15.45;;;9.15;;
15240;SDS011;7723;52.170;9.978;2023-05-07T04:22:32;16.25;;;9.88;;
15240;SDS011;7723;52.170;9.978;2023-05-07T04:24:59;12.18;;;7.60;;
15240;SDS011;7723;52.170;9.978;2023-05-07T04:27:27;16.27;;;8.77;;
15240;SDS011;7723;52.170;9.978;2023-05-07T04:29:54;16.10;;;9.55;;
15240;SDS011;7723;52.170;9.978;2023-05-07T04:32:23;15.13;;;9.55;;
15240;SDS011;7723;52.170;9.978;2023-05-07T04:34:51;15.38;;;9.02;;
15240;SDS011;7723;52.170;9.978;2023-05-07T04:37:18;14.57;;;8.68;;
15240;SDS011;7723;52.170;9.978;2023-05-07T04:39:45;15.30;;;9.38;;
15240;SDS011;7723;52.170;9.978;2023-05-07T04:42:14;14.43;;;8.75;;
15240;SDS011;7723;52.170;9.978;2023-05-07T04:44:42;17.75;;;9.18;;
15240;SDS011;7723;52.170;9.978;2023-05-07T04:47:10;15.35;;;9.40;;
15240;SDS011;7723;52.170;9.978;2023-05-07T04:49:39;14.05;;;8.02;;
15240;SDS011;7723;52.170;9.978;2023-05-07T04:52:06;16.52;;;9.88;;
15240;SDS011;7723;52.170;9.978;2023-05-07T04:54:33;14.70;;;8.88;;
15240;SDS011;7723;52.170;9.978;2023-05-07T04:57:00;14.90;;;8.65;;
15240;SDS011;7723;52.170;9.978;2023-05-07T04:59:30;13.93;;;8.05;;
15240;SDS011;7723;52.170;9.978;2023-05-07T05:01:57;13.77;;;8.20;;
15240;SDS011;7723;52.170;9.978;2023-05-07T05:04:24;12.60;;;8.07;;
15240;SDS011;7723;52.170;9.978;2023-05-07T05:06:52;15.07;;;8.60;;
15240;SDS011;7723;52.170;9.978;2023-05-07T05:09:19;13.25;;;7.72;;
15240;SDS011;7723;52.170;9.978;2023-05-07T05:11:46;15.32;;;8.40;;
15240;SDS011;7723;52.170;9.978;2023-05-07T05:14:14;13.63;;;7.45;;
15240;SDS011;7723;52.170;9.978;2023-05-07T05:16:41;12.90;;;7.97;;
15240;SDS011;7723;52.170;9.978;2023-05-07T05:19:08;16.52;;;8.38;;
15240;SDS011;7723;52.170;9.978;2023-05-07T05:21:35;11.07;;;7.28;;
15240;SDS011;7723;52.170;9.978;2023-05-07T05:24:04;11.27;;;6.65;;
15240;SDS011;7723;52.170;9.978;2023-05-07T05:26:31;11.98;;;7.80;;
15240;SDS011;7723;52.170;9.978;2023-05-07T05:28:58;11.00;;;6.63;;
15240;SDS011;7723;52.170;9.978;2023-05-07T05:31:25;11.43;;;7.35;;
15240;SDS011;7723;52.170;9.978;2023-05-07T05:33:52;12.10;;;7.38;;
15240;SDS011;7723;52.170;9.978;2023-05-07T05:36:19;12.05;;;7.10;;
15240;SDS011;7723;52.170;9.978;2023-05-07T05:38:47;11.07;;;7.28;;
15240;SDS011;7723;52.170;9.978;2023-05-07T05:41:15;9.93;;;6.40;;
15240;SDS011;7723;52.170;9.978;2023-05-07T05:43:42;11.80;;;7.15;;
15240;SDS011;7723;52.170;9.978;2023-05-07T05:46:09;10.10;;;6.55;;
15240;SDS011;7723;52.170;9.978;2023-05-07T05:48:37;10.35;;;7.20;;
15240;SDS011;7723;52.170;9.978;2023-05-07T05:51:04;12.20;;;6.63;;
15240;SDS011;7723;52.170;9.978;2023-05-07T05:53:31;9.00;;;6.07;;
15240;SDS011;7723;52.170;9.978;2023-05-07T05:55:58;9.85;;;6.57;;
15240;SDS011;7723;52.170;9.978;2023-05-07T05:58:27;9.20;;;6.25;;
15240;SDS011;7723;52.170;9.978;2023-05-07T06:00:54;9.18;;;5.97;;
15240;SDS011;7723;52.170;9.978;2023-05-07T06:03:22;9.63;;;6.22;;
15240;SDS011;7723;52.170;9.978;2023-05-07T06:05:49;10.70;;;6.70;;
15240;SDS011;7723;52.170;9.978;2023-05-07T06:08:16;10.32;;;6.78;;
15240;SDS011;7723;52.170;9.978;2023-05-07T06:10:43;11.05;;;7.32;;
15240;SDS011;7723;52.170;9.978;2023-05-07T06:13:10;9.00;;;5.82;;
15240;SDS011;7723;52.170;9.978;2023-05-07T06:15:39;9.55;;;5.78;;
15240;SDS011;7723;52.170;9.978;2023-05-07T06:18:06;10.15;;;7.10;;
15240;SDS011;7723;52.170;9.978;2023-05-07T06:20:33;8.52;;;5.80;;
15240;SDS011;7723;52.170;9.978;2023-05-07T06:23:00;9.05;;;5.38;;
15240;SDS011;7723;52.170;9.978;2023-05-07T06:25:27;8.02;;;5.40;;
15240;SDS011;7723;52.170;9.978;2023-05-07T06:27:54;7.68;;;5.57;;
15240;SDS011;7723;52.170;9.978;2023-05-07T06:30:21;7.07;;;5.30;;
15240;SDS011;7723;52.170;9.978;2023-05-07T06:32:50;6.75;;;4.88;;
15240;SDS011;7723;52.170;9.978;2023-05-07T06:35:17;8.20;;;5.03;;
15240;SDS011;7723;52.170;9.978;2023-05-07T06:37:44;7.00;;;4.38;;
15240;SDS011;7723;52.170;9.978;2023-05-07T06:40:11;7.55;;;5.05;;
15240;SDS011;7723;52.170;9.978;2023-05-07T06:42:38;7.00;;;5.30;;
15240;SDS011;7723;52.170;9.978;2023-05-07T06:45:06;7.43;;;5.30;;
15240;SDS011;7723;52.170;9.978;2023-05-07T06:47:34;6.68;;;4.45;;
15240;SDS011;7723;52.170;9.978;2023-05-07T06:50:03;6.68;;;4.60;;
15240;SDS011;7723;52.170;9.978;2023-05-07T06:52:31;6.35;;;4.47;;
15240;SDS011;7723;52.170;9.978;2023-05-07T06:54:58;6.32;;;4.75;;
15240;SDS011;7723;52.170;9.978;2023-05-07T06:57:26;6.63;;;4.30;;
15240;SDS011;7723;52.170;9.978;2023-05-07T06:59:53;6.15;;;4.82;;
15240;SDS011;7723;52.170;9.978;2023-05-07T07:02:21;7.10;;;5.00;;
15240;SDS011;7723;52.170;9.978;2023-05-07T07:04:48;7.20;;;4.80;;
15240;SDS011;7723;52.170;9.978;2023-05-07T07:07:16;6.28;;;4.40;;
15240;SDS011;7723;52.170;9.978;2023-05-07T07:09:43;7.53;;;4.90;;
15240;SDS011;7723;52.170;9.978;2023-05-07T07:12:10;7.40;;;4.78;;
15240;SDS011;7723;52.170;9.978;2023-05-07T07:14:37;6.80;;;4.63;;
15240;SDS011;7723;52.170;9.978;2023-05-07T07:17:04;6.05;;;4.22;;
15240;SDS011;7723;52.170;9.978;2023-05-07T07:19:31;9.05;;;6.35;;
15240;SDS011;7723;52.170;9.978;2023-05-07T07:21:58;7.20;;;5.40;;
15240;SDS011;7723;52.170;9.978;2023-05-07T07:24:27;6.10;;;4.63;;
15240;SDS011;7723;52.170;9.978;2023-05-07T07:26:54;7.97;;;5.80;;
15240;SDS011;7723;52.170;9.978;2023-05-07T07:29:21;6.18;;;4.55;;
15240;SDS011;7723;52.170;9.978;2023-05-07T07:31:50;7.20;;;4.70;;
15240;SDS011;7723;52.170;9.978;2023-05-07T07:34:17;6.28;;;4.90;;
15240;SDS011;7723;52.170;9.978;2023-05-07T07:36:44;7.72;;;5.25;;
15240;SDS011;7723;52.170;9.978;2023-05-07T07:39:12;6.75;;;5.82;;
15240;SDS011;7723;52.170;9.978;2023-05-07T07:41:40;10.65;;;5.88;;
15240;SDS011;7723;52.170;9.978;2023-05-07T07:44:07;6.93;;;5.18;;
15240;SDS011;7723;52.170;9.978;2023-05-07T07:46:37;7.40;;;5.55;;
15240;SDS011;7723;52.170;9.978;2023-05-07T07:49:04;6.03;;;5.00;;
15240;SDS011;7723;52.170;9.978;2023-05-07T07:51:32;6.10;;;5.20;;
15240;SDS011;7723;52.170;9.978;2023-05-07T07:53:59;8.60;;;6.15;;
15240;SDS011;7723;52.170;9.978;2023-05-07T07:56:27;8.98;;;6.72;;
15240;SDS011;7723;52.170;9.978;2023-05-07T07:58:56;8.48;;;6.70;;
15240;SDS011;7723;52.170;9.978;2023-05-07T08:01:23;7.72;;;6.68;;
15240;SDS011;7723;52.170;9.978;2023-05-07T08:03:51;8.02;;;6.63;;
15240;SDS011;7723;52.170;9.978;2023-05-07T08:06:18;10.43;;;6.95;;
15240;SDS011;7723;52.170;9.978;2023-05-07T08:08:45;8.85;;;6.32;;
15240;SDS011;7723;52.170;9.978;2023-05-07T08:11:12;9.40;;;6.80;;
15240;SDS011;7723;52.170;9.978;2023-05-07T08:13:39;8.82;;;6.38;;
15240;SDS011;7723;52.170;9.978;2023-05-07T08:16:08;7.85;;;5.65;;
15240;SDS011;7723;52.170;9.978;2023-05-07T08:18:35;8.07;;;6.43;;
15240;SDS011;7723;52.170;9.978;2023-05-07T08:21:03;8.60;;;6.03;;
15240;SDS011;7723;52.170;9.978;2023-05-07T08:23:31;8.48;;;5.82;;
15240;SDS011;7723;52.170;9.978;2023-05-07T08:25:59;8.88;;;6.00;;
15240;SDS011;7723;52.170;9.978;2023-05-07T08:28:26;11.35;;;6.85;;
15240;SDS011;7723;52.170;9.978;2023-05-07T08:30:53;10.40;;;6.97;;
15240;SDS011;7723;52.170;9.978;2023-05-07T08:33:23;8.43;;;6.15;;
15240;SDS011;7723;52.170;9.978;2023-05-07T08:35:50;10.15;;;6.22;;
15240;SDS011;7723;52.170;9.978;2023-05-07T08:38:17;8.40;;;5.40;;
15240;SDS011;7723;52.170;9.978;2023-05-07T08:40:44;9.35;;;6.55;;
15240;SDS011;7723;52.170;9.978;2023-05-07T08:43:12;7.72;;;5.65;;
15240;SDS011;7723;52.170;9.978;2023-05-07T08:45:40;9.63;;;6.10;;
15240;SDS011;7723;52.170;9.978;2023-05-07T08:48:09;7.65;;;5.60;;
15240;SDS011;7723;52.170;9.978;2023-05-07T08:50:43;8.27;;;6.13;;
15240;SDS011;7723;52.170;9.978;2023-05-07T08:53:10;7.38;;;5.10;;
15240;SDS011;7723;52.170;9.978;2023-05-07T08:55:37;7.55;;;5.65;;
15240;SDS011;7723;52.170;9.978;2023-05-07T08:58:04;7.35;;;5.00;;
15240;SDS011;7723;52.170;9.978;2023-05-07T09:00:32;7.70;;;5.70;;
15240;SDS011;7723;52.170;9.978;2023-05-07T09:02:59;7.07;;;5.30;;
15240;SDS011;7723;52.170;9.978;2023-05-07T09:05:27;6.40;;;5.00;;
15240;SDS011;7723;52.170;9.978;2023-05-07T09:07:58;6.15;;;5.03;;
15240;SDS011;7723;52.170;9.978;2023-05-07T09:10:26;7.15;;;4.88;;
15240;SDS011;7723;52.170;9.978;2023-05-07T09:12:53;8.55;;;5.43;;
15240;SDS011;7723;52.170;9.978;2023-05-07T09:15:20;7.13;;;5.25;;
15240;SDS011;7723;52.170;9.978;2023-05-07T09:17:47;7.45;;;5.80;;
15240;SDS011;7723;52.170;9.978;2023-05-07T09:20:14;8.30;;;6.25;;
15240;SDS011;7723;52.170;9.978;2023-05-07T09:22:42;6.93;;;5.65;;
15240;SDS011;7723;52.170;9.978;2023-05-07T09:25:11;8.18;;;6.10;;
15240;SDS011;7723;52.170;9.978;2023-05-07T09:27:38;8.30;;;5.90;;
15240;SDS011;7723;52.170;9.978;2023-05-07T09:30:07;8.85;;;6.57;;
15240;SDS011;7723;52.170;9.978;2023-05-07T09:32:35;9.05;;;6.63;;
15240;SDS011;7723;52.170;9.978;2023-05-07T09:35:04;9.60;;;7.38;;
15240;SDS011;7723;52.170;9.978;2023-05-07T09:37:32;10.65;;;7.88;;
15240;SDS011;7723;52.170;9.978;2023-05-07T09:39:59;9.50;;;7.65;;
15240;SDS011;7723;52.170;9.978;2023-05-07T09:42:28;9.32;;;7.03;;
15240;SDS011;7723;52.170;9.978;2023-05-07T09:44:55;8.98;;;7.22;;
15240;SDS011;7723;52.170;9.978;2023-05-07T09:47:23;9.48;;;7.47;;
15240;SDS011;7723;52.170;9.978;2023-05-07T09:49:52;10.32;;;7.68;;
15240;SDS011;7723;52.170;9.978;2023-05-07T09:52:23;10.07;;;7.78;;
15240;SDS011;7723;52.170;9.978;2023-05-07T09:54:53;11.98;;;8.55;;
15240;SDS011;7723;52.170;9.978;2023-05-07T09:57:24;10.15;;;7.80;;
15240;SDS011;7723;52.170;9.978;2023-05-07T09:59:53;11.25;;;8.25;;
15240;SDS011;7723;52.170;9.978;2023-05-07T10:02:22;9.35;;;7.60;;
15240;SDS011;7723;52.170;9.978;2023-05-07T10:04:52;8.82;;;7.93;;
15240;SDS011;7723;52.170;9.978;2023-05-07T10:07:20;11.27;;;8.95;;
15240;SDS011;7723;52.170;9.978;2023-05-07T10:09:49;9.80;;;7.47;;
15240;SDS011;7723;52.170;9.978;2023-05-07T10:12:18;8.75;;;6.95;;
15240;SDS011;7723;52.170;9.978;2023-05-07T10:14:46;12.25;;;7.90;;
15240;SDS011;7723;52.170;9.978;2023-05-07T10:17:16;7.93;;;6.57;;
15240;SDS011;7723;52.170;9.978;2023-05-07T10:19:44;11.25;;;7.75;;
15240;SDS011;7723;52.170;9.978;2023-05-07T10:22:11;12.73;;;7.13;;
15240;SDS011;7723;52.170;9.978;2023-05-07T10:24:42;8.68;;;7.20;;
15240;SDS011;7723;52.170;9.978;2023-05-07T10:27:11;9.00;;;7.18;;
15240;SDS011;7723;52.170;9.978;2023-05-07T10:29:44;8.02;;;7.22;;
15240;SDS011;7723;52.170;9.978;2023-05-07T10:32:32;9.27;;;7.00;;
15240;SDS011;7723;52.170;9.978;2023-05-07T10:35:04;8.45;;;6.50;;
15240;SDS011;7723;52.170;9.978;2023-05-07T10:37:38;9.43;;;7.30;;
15240;SDS011;7723;52.170;9.978;2023-05-07T10:40:06;7.65;;;6.60;;
15240;SDS011;7723;52.170;9.978;2023-05-07T10:42:34;8.43;;;7.18;;
15240;SDS011;7723;52.170;9.978;2023-05-07T10:45:11;9.65;;;7.45;;
15240;SDS011;7723;52.170;9.978;2023-05-07T10:50:36;7.78;;;6.30;;
15240;SDS011;7723;52.170;9.978;2023-05-07T10:53:23;8.80;;;7.65;;
15240;SDS011;7723;52.170;9.978;2023-05-07T10:58:50;7.90;;;6.43;;
15240;SDS011;7723;52.170;9.978;2023-05-07T11:01:18;6.70;;;5.93;;
15240;SDS011;7723;52.170;9.978;2023-05-07T11:04:21;7.82;;;6.50;;
15240;SDS011;7723;52.170;9.978;2023-05-07T11:10:00;7.78;;;6.03;;
15240;SDS011;7723;52.170;9.978;2023-05-07T11:12:48;8.00;;;6.53;;
15240;SDS011;7723;52.170;9.978;2023-05-07T11:15:38;7.18;;;5.40;;
15240;SDS011;7723;52.170;9.978;2023-05-07T11:18:08;9.35;;;6.47;;
15240;SDS011;7723;52.170;9.978;2023-05-07T11:20:51;7.90;;;5.97;;
15240;SDS011;7723;52.170;9.978;2023-05-07T11:26:27;10.95;;;6.38;;
15240;SDS011;7723;52.170;9.978;2023-05-07T11:28:56;8.65;;;6.32;;
15240;SDS011;7723;52.170;9.978;2023-05-07T11:31:25;7.65;;;6.13;;
15240;SDS011;7723;52.170;9.978;2023-05-07T11:33:55;8.48;;;6.35;;
15240;SDS011;7723;52.170;9.978;2023-05-07T11:36:24;7.45;;;5.55;;
15240;SDS011;7723;52.170;9.978;2023-05-07T11:38:52;7.18;;;6.20;;
15240;SDS011;7723;52.170;9.978;2023-05-07T11:41:19;8.23;;;6.55;;
15240;SDS011;7723;52.170;9.978;2023-05-07T11:43:54;7.38;;;5.70;;
15240;SDS011;7723;52.170;9.978;2023-05-07T11:46:26;6.97;;;5.50;;
15240;SDS011;7723;52.170;9.978;2023-05-07T11:48:54;5.75;;;5.18;;
15240;SDS011;7723;52.170;9.978;2023-05-07T11:51:22;8.10;;;5.72;;
15240;SDS011;7723;52.170;9.978;2023-05-07T11:53:52;7.13;;;5.28;;
15240;SDS011;7723;52.170;9.978;2023-05-07T11:56:20;6.95;;;5.65;;
15240;SDS011;7723;52.170;9.978;2023-05-07T11:58:47;9.38;;;4.97;;
15240;SDS011;7723;52.170;9.978;2023-05-07T12:01:17;5.63;;;5.03;;
15240;SDS011;7723;52.170;9.978;2023-05-07T12:03:44;6.80;;;5.57;;
15240;SDS011;7723;52.170;9.978;2023-05-07T12:06:13;7.38;;;5.93;;
15240;SDS011;7723;52.170;9.978;2023-05-07T12:08:43;7.18;;;5.85;;
15240;SDS011;7723;52.170;9.978;2023-05-07T12:11:13;7.28;;;5.78;;
15240;SDS011;7723;52.170;9.978;2023-05-07T12:13:42;5.75;;;5.22;;
15240;SDS011;7723;52.170;9.978;2023-05-07T12:16:09;6.70;;;5.60;;
15240;SDS011;7723;52.170;9.978;2023-05-07T12:18:37;6.28;;;5.43;;
15240;SDS011;7723;52.170;9.978;2023-05-07T12:21:05;5.43;;;4.93;;
15240;SDS011;7723;52.170;9.978;2023-05-07T12:23:34;6.65;;;5.65;;
15240;SDS011;7723;52.170;9.978;2023-05-07T12:26:03;6.53;;;5.85;;
15240;SDS011;7723;52.170;9.978;2023-05-07T12:28:31;7.35;;;5.88;;
15240;SDS011;7723;52.170;9.978;2023-05-07T12:31:02;6.40;;;5.60;;
15240;SDS011;7723;52.170;9.978;2023-05-07T12:33:30;7.68;;;5.85;;
15240;SDS011;7723;52.170;9.978;2023-05-07T12:35:58;9.70;;;7.57;;
15240;SDS011;7723;52.170;9.978;2023-05-07T12:38:32;8.52;;;7.20;;
15240;SDS011;7723;52.170;9.978;2023-05-07T12:41:02;9.32;;;7.68;;
15240;SDS011;7723;52.170;9.978;2023-05-07T12:43:33;9.90;;;8.82;;
15240;SDS011;7723;52.170;9.978;2023-05-07T12:46:01;7.85;;;6.78;;
15240;SDS011;7723;52.170;9.978;2023-05-07T12:48:29;8.05;;;6.90;;
15240;SDS011;7723;52.170;9.978;2023-05-07T12:50:59;10.10;;;7.75;;
15240;SDS011;7723;52.170;9.978;2023-05-07T12:53:27;8.30;;;6.78;;
15240;SDS011;7723;52.170;9.978;2023-05-07T12:55:56;7.55;;;6.72;;
15240;SDS011;7723;52.170;9.978;2023-05-07T12:58:26;8.88;;;7.72;;
15240;SDS011;7723;52.170;9.978;2023-05-07T13:00:55;9.60;;;8.35;;
15240;SDS011;7723;52.170;9.978;2023-05-07T13:03:25;9.68;;;7.95;;
15240;SDS011;7723;52.170;9.978;2023-05-07T13:05:54;9.25;;;7.18;;
15240;SDS011;7723;52.170;9.978;2023-05-07T13:08:25;7.90;;;7.07;;
15240;SDS011;7723;52.170;9.978;2023-05-07T13:10:54;9.00;;;8.10;;
15240;SDS011;7723;52.170;9.978;2023-05-07T13:13:21;8.75;;;7.85;;
15240;SDS011;7723;52.170;9.978;2023-05-07T13:15:50;8.25;;;7.40;;
15240;SDS011;7723;52.170;9.978;2023-05-07T13:18:17;8.98;;;8.07;;
15240;SDS011;7723;52.170;9.978;2023-05-07T13:20:44;8.18;;;7.30;;
15240;SDS011;7723;52.170;9.978;2023-05-07T13:23:11;8.52;;;7.55;;
15240;SDS011;7723;52.170;9.978;2023-05-07T13:25:38;8.65;;;7.68;;
15240;SDS011;7723;52.170;9.978;2023-05-07T13:28:05;9.52;;;7.90;;
15240;SDS011;7723;52.170;9.978;2023-05-07T13:30:32;7.90;;;6.95;;
15240;SDS011;7723;52.170;9.978;2023-05-07T13:33:01;8.10;;;7.30;;
15240;SDS011;7723;52.170;9.978;2023-05-07T13:35:28;8.77;;;6.88;;
15240;SDS011;7723;52.170;9.978;2023-05-07T13:37:56;8.15;;;7.22;;
15240;SDS011;7723;52.170;9.978;2023-05-07T13:40:23;8.70;;;7.22;;
15240;SDS011;7723;52.170;9.978;2023-05-07T13:42:50;7.25;;;6.55;;
15240;SDS011;7723;52.170;9.978;2023-05-07T13:45:17;8.13;;;7.32;;
15240;SDS011;7723;52.170;9.978;2023-05-07T13:47:45;9.32;;;8.05;;
15240;SDS011;7723;52.170;9.978;2023-05-07T13:50:15;7.28;;;6.57;;
15240;SDS011;7723;52.170;9.978;2023-05-07T13:52:43;9.13;;;7.32;;
15240;SDS011;7723;52.170;9.978;2023-05-07T13:55:15;8.10;;;7.30;;
15240;SDS011;7723;52.170;9.978;2023-05-07T13:57:43;7.38;;;6.65;;
15240;SDS011;7723;52.170;9.978;2023-05-07T14:00:11;7.30;;;6.55;;
15240;SDS011;7723;52.170;9.978;2023-05-07T14:02:42;6.93;;;6.00;;
15240;SDS011;7723;52.170;9.978;2023-05-07T14:05:09;8.23;;;6.78;;
15240;SDS011;7723;52.170;9.978;2023-05-07T14:07:39;7.70;;;6.50;;
15240;SDS011;7723;52.170;9.978;2023-05-07T14:10:07;7.60;;;6.80;;
15240;SDS011;7723;52.170;9.978;2023-05-07T14:12:36;8.23;;;7.35;;
15240;SDS011;7723;52.170;9.978;2023-05-07T14:15:03;7.53;;;6.72;;
15240;SDS011;7723;52.170;9.978;2023-05-07T14:17:31;7.43;;;6.65;;
15240;SDS011;7723;52.170;9.978;2023-05-07T14:19:58;8.30;;;6.20;;
15240;SDS011;7723;52.170;9.978;2023-05-07T14:22:25;9.02;;;6.55;;
15240;SDS011;7723;52.170;9.978;2023-05-07T14:24:54;7.72;;;6.75;;
15240;SDS011;7723;52.170;9.978;2023-05-07T14:27:21;8.27;;;6.13;;
15240;SDS011;7723;52.170;9.978;2023-05-07T14:29:48;7.72;;;6.43;;
15240;SDS011;7723;52.170;9.978;2023-05-07T14:32:16;9.32;;;7.80;;
15240;SDS011;7723;52.170;9.978;2023-05-07T14:34:44;8.65;;;6.78;;
15240;SDS011;7723;52.170;9.978;2023-05-07T14:37:11;7.65;;;6.47;;
15240;SDS011;7723;52.170;9.978;2023-05-07T14:39:39;9.27;;;7.72;;
15240;SDS011;7723;52.170;9.978;2023-05-07T14:42:07;7.95;;;6.78;;
15240;SDS011;7723;52.170;9.978;2023-05-07T14:44:34;9.20;;;7.20;;
15240;SDS011;7723;52.170;9.978;2023-05-07T14:47:02;8.57;;;6.00;;
15240;SDS011;7723;52.170;9.978;2023-05-07T14:49:29;8.30;;;7.10;;
15240;SDS011;7723;52.170;9.978;2023-05-07T14:51:57;8.55;;;6.68;;
15240;SDS011;7723;52.170;9.978;2023-05-07T14:54:25;9.48;;;7.05;;
15240;SDS011;7723;52.170;9.978;2023-05-07T14:56:52;7.45;;;6.68;;
15240;SDS011;7723;52.170;9.978;2023-05-07T14:59:21;8.30;;;7.13;;
15240;SDS011;7723;52.170;9.978;2023-05-07T15:01:50;7.30;;;6.22;;
15240;SDS011;7723;52.170;9.978;2023-05-07T15:04:17;8.65;;;6.50;;
15240;SDS011;7723;52.170;9.978;2023-05-07T15:06:44;9.38;;;7.53;;
15240;SDS011;7723;52.170;9.978;2023-05-07T15:09:11;9.07;;;7.13;;
15240;SDS011;7723;52.170;9.978;2023-05-07T15:11:38;9.57;;;6.78;;